Greenville Downtown Airport
KGMU : now visible

Airfield :











YOU CAN JOIN US ON...

 
LOGIN :

Register | Disclaimer

   EN    FR    IT 

 









Legend :    VFR   Marginal VFR   IFR   Intensive IFR   Very Intensive IFR
Visi :
Ceiling :
>= 8 km
>= 3000ft
5 to 8 km
1000 to 3000 ft
1500m to 5 km
500 to 1000 ft
800 to 1500m
200 to 500 ft
< 800m
< 200 ft
Symbols :   Thunderstorms  Fog  Heavy snow  Heavy precipitations  Wind > 20 kt






- Airport Elevation : 1048 ft


KGMU - Greenville Downtown

CURRENT METAR :
  • 250453Z AUTO 03008KT 10SM SCT055 21/19 A3013 RMK AO2 SLP192 T02060189 403110194

EXPIRED METARs :
  • 250353Z AUTO 06008KT 10SM BKN050 BKN085 21/19 A3014 RMK AO2 SLP195 T02110189
  • 250253Z AUTO 04007KT 10SM CLR 21/19 A3011 RMK AO2 SLP185 T02110189 53011

TAF KGMU
Valid from the 25 at 00:00 until the 26 at 00:00 UTC


242341Z 2500/2524 04005KT P6SM VCSH SCT050 BKN090
FM250800 04004KT 5SM BR VCSH SCT015 BKN025
FM251000 05004KT 6SM BR VCSH SCT005 BKN010
PROB30 2517/2523 4SM TSRA BR OVC004CB
KZTL FIR / North America



MET'MAP, your aeronautical weather chart ! - Copyright ORBIFLY December 2007 - Disclaimer

ORBIFLY MET'MAP TEAM :

Programming & Development : Alexandra Zaïnal
Concept & original design : Baudouin d'Aumeries
Assistance for programming : Marc-Olivier Méhu
Technical & hardware support : Manuel Goepfert

Contact : metmap@orbifly.com




SOURCES & CREDITS :

   NOAA       Earth
Advisory